createdAt,value
2019-04-22T00:00:36.635Z,41.09
2019-04-22T00:01:33.042Z,41.1
2019-04-22T00:02:28.154Z,41.08
2019-04-22T00:03:43.157Z,41.1
2019-04-22T00:04:54.412Z,41.05
2019-04-22T00:06:11.354Z,41.06
2019-04-22T00:07:21.975Z,41.11
2019-04-22T00:08:16.275Z,41.05
2019-04-22T00:09:23.703Z,41.11
2019-04-22T00:10:25.923Z,41.08
2019-04-22T00:11:28.650Z,41.07
2019-04-22T00:12:26.979Z,41.02
2019-04-22T00:13:25.694Z,41.05
2019-04-22T00:14:17.503Z,41.11
2019-04-22T00:15:09.587Z,41.09
2019-04-22T00:17:29.893Z,41.1
2019-04-22T00:18:19.673Z,41
2019-04-22T00:19:20.487Z,41.07
2019-04-22T00:20:22.228Z,41.08
2019-04-22T00:21:25.348Z,41.06
2019-04-22T00:22:27.205Z,41.09
2019-04-22T00:24:23.801Z,41.1
2019-04-22T00:25:26.079Z,41.08
2019-04-22T00:27:19.958Z,41
2019-04-22T00:28:30.145Z,41.07
2019-04-22T00:29:59.078Z,41.07
2019-04-22T00:30:25.299Z,41.02
2019-04-22T00:31:26.546Z,41.03
2019-04-22T00:32:17.846Z,41.15
2019-04-22T00:33:12.856Z,41.02
2019-04-22T00:34:08.063Z,41
2019-04-22T00:35:17.709Z,41
2019-04-22T00:37:16.591Z,41.07
2019-04-22T00:38:23.268Z,41.06
2019-04-22T00:39:26.767Z,41
2019-04-22T00:40:28.066Z,41.07
2019-04-22T00:41:28.397Z,41.05
2019-04-22T00:42:14.533Z,41.05
2019-04-22T00:43:24.067Z,40.96
2019-04-22T00:44:31.126Z,40.98
2019-04-22T00:45:26.580Z,41.05
2019-04-22T00:47:27.736Z,41.03
2019-04-22T00:50:23.371Z,41.01
2019-04-22T00:51:27.727Z,41.02
2019-04-22T00:52:27.927Z,40.99
2019-04-22T00:53:29.471Z,40.97
2019-04-22T00:54:13.460Z,40.93
2019-04-22T00:55:24.399Z,40.97
2019-04-22T00:56:32.395Z,40.99
2019-04-22T00:57:21.040Z,41.01
2019-04-22T00:59:12.634Z,41
2019-04-22T01:00:11.408Z,41
2019-04-22T01:01:23.299Z,40.94
2019-04-22T01:04:34.421Z,41.07
2019-04-22T01:05:27.120Z,41.01
2019-04-22T01:06:25.346Z,40.96
2019-04-22T01:07:17.131Z,40.98
2019-04-22T01:08:20.895Z,40.97
2019-04-22T01:09:16.719Z,40.96
2019-04-22T01:10:25.009Z,40.98
2019-04-22T01:11:31.975Z,40.99
2019-04-22T01:12:31.497Z,41
2019-04-22T01:14:21.496Z,40.95
2019-04-22T01:15:23.162Z,40.97
2019-04-22T01:17:25.433Z,40.91
2019-04-22T01:18:09.151Z,40.99
2019-04-22T01:19:21.083Z,41.02
2019-04-22T01:21:05.439Z,40.97
2019-04-22T01:21:22.462Z,40.93
2019-04-22T01:22:31.638Z,40.96
2019-04-22T01:27:01.725Z,40.96
2019-04-22T01:27:56.811Z,40.9
2019-04-22T01:28:53.377Z,40.9
2019-04-22T01:29:52.282Z,40.96
2019-04-22T01:30:43.759Z,40.97
2019-04-22T01:31:36.242Z,40.88
2019-04-22T01:32:38.213Z,40.93
2019-04-22T01:33:40.584Z,40.89
2019-04-22T01:34:56.402Z,41.01
2019-04-22T01:36:01.291Z,40.95
2019-04-22T01:37:07.442Z,40.99
2019-04-22T01:38:03.800Z,40.9
2019-04-22T01:39:19.866Z,40.88
2019-04-22T01:40:23.631Z,40.93
2019-04-22T01:41:14.554Z,40.88
2019-04-22T01:42:32.527Z,40.87
2019-04-22T01:43:31.358Z,40.92
2019-04-22T01:44:32.621Z,40.89
2019-04-22T01:45:39.089Z,40.83
2019-04-22T01:46:31.022Z,40.85
2019-04-22T01:47:24.431Z,40.85
2019-04-22T01:48:17.440Z,40.88
2019-04-22T01:49:27.141Z,40.91
2019-04-22T01:50:11.737Z,40.91
2019-04-22T01:51:12.080Z,40.84
2019-04-22T01:52:36.510Z,40.83
2019-04-22T01:53:33.201Z,40.91
2019-04-22T01:54:34.805Z,40.84
2019-04-22T01:55:43.740Z,40.83
2019-04-22T01:56:13.152Z,40.89
2019-04-22T01:57:17.083Z,40.87
2019-04-22T01:58:10.580Z,40.89
2019-04-22T01:59:04.736Z,40.82
2019-04-22T02:01:30.165Z,40.86
2019-04-22T02:02:21.975Z,40.86
2019-04-22T02:04:31.478Z,40.85
2019-04-22T02:05:22.607Z,40.91
2019-04-22T02:06:13.432Z,40.82
2019-04-22T02:07:23.294Z,40.78
2019-04-22T02:08:37.715Z,40.85
2019-04-22T02:10:27.940Z,40.73
2019-04-22T02:11:31.954Z,40.83
2019-04-22T02:12:25.519Z,40.78
2019-04-22T02:13:21.182Z,40.84
2019-04-22T02:14:32.827Z,40.83
2019-04-22T02:15:16.530Z,40.78
2019-04-22T02:17:24.821Z,40.8
2019-04-22T02:19:35.477Z,40.8
2019-04-22T02:20:16.670Z,40.82
2019-04-22T02:21:13.481Z,40.79
2019-04-22T02:22:17.447Z,40.81
2019-04-22T02:23:53.104Z,40.78
2019-04-22T02:24:33.117Z,40.79
2019-04-22T02:25:15.339Z,40.76
2019-04-22T02:26:31.102Z,40.84
2019-04-22T02:27:26.008Z,40.78
2019-04-22T02:28:32.076Z,40.79
2019-04-22T02:29:28.613Z,40.71
2019-04-22T02:30:20.755Z,40.71
2019-04-22T02:31:48.633Z,40.81
2019-04-22T02:32:48.030Z,40.77
2019-04-22T02:34:08.589Z,40.77
2019-04-22T02:34:45.701Z,40.8
2019-04-22T02:35:57.135Z,40.73
2019-04-22T02:37:22.594Z,40.71
2019-04-22T02:38:51.075Z,40.78
2019-04-22T02:39:23.451Z,40.73
2019-04-22T02:40:44.098Z,40.75
2019-04-22T02:41:25.941Z,40.78
2019-04-22T02:42:23.203Z,40.78
2019-04-22T02:45:49.680Z,40.79
2019-04-22T02:47:03.620Z,40.72
2019-04-22T02:47:41.729Z,40.81
2019-04-22T02:48:52.660Z,40.73
2019-04-22T02:49:37.046Z,40.75
2019-04-22T02:50:27.853Z,40.78
2019-04-22T02:51:32.451Z,40.76
2019-04-22T02:52:42.567Z,40.76
2019-04-22T02:54:00.330Z,40.72
2019-04-22T02:55:22.514Z,40.76
2019-04-22T02:56:43.577Z,40.77
2019-04-22T02:59:39.046Z,40.74
2019-04-22T03:01:13.216Z,40.85
2019-04-22T03:01:29.391Z,40.74
2019-04-22T03:02:27.998Z,40.74
2019-04-22T03:04:00.192Z,40.76
2019-04-22T03:04:36.936Z,40.8
2019-04-22T03:05:44.871Z,40.75
2019-04-22T03:06:30.265Z,40.73
2019-04-22T03:07:40.458Z,40.72
2019-04-22T03:10:54.501Z,40.78
2019-04-22T03:11:24.166Z,40.77
2019-04-22T03:13:37.439Z,40.75
2019-04-22T03:14:21.720Z,40.7
2019-04-22T03:15:40.477Z,40.8
2019-04-22T03:17:38.064Z,40.81
2019-04-22T03:19:33.766Z,40.73
2019-04-22T03:20:33.253Z,40.66
2019-04-22T03:21:30.945Z,40.73
2019-04-22T03:22:27.794Z,40.78
2019-04-22T03:23:54.083Z,40.67
2019-04-22T03:25:13.874Z,40.73
2019-04-22T03:26:11.185Z,40.7
2019-04-22T03:26:48.178Z,40.71
2019-04-22T03:27:34.621Z,40.79
2019-04-22T03:28:50.672Z,40.73
2019-04-22T03:29:27.859Z,40.76
2019-04-22T03:31:43.239Z,40.69
2019-04-22T03:32:50.938Z,40.72
2019-04-22T03:33:51.212Z,40.71
2019-04-22T03:35:35.797Z,40.68
2019-04-22T03:35:35.805Z,40.64
2019-04-22T03:37:31.661Z,40.71
2019-04-22T03:38:53.600Z,40.68
2019-04-22T03:40:19.420Z,40.6
2019-04-22T03:40:45.966Z,40.71
2019-04-22T03:42:20.779Z,40.7
2019-04-22T03:43:34.873Z,40.66
2019-04-22T03:45:29.958Z,40.65
2019-04-22T03:47:33.347Z,40.75
2019-04-22T03:48:35.695Z,40.64
2019-04-22T03:49:54.087Z,40.73
2019-04-22T03:50:35.922Z,40.65
2019-04-22T03:51:45.444Z,40.68
2019-04-22T03:52:26.575Z,40.67
2019-04-22T03:53:38.063Z,40.78
2019-04-22T03:54:51.495Z,40.69
2019-04-22T03:55:28.688Z,40.68
2019-04-22T03:57:36.618Z,40.64
2019-04-22T03:58:27.822Z,40.6
2019-04-22T03:59:56.408Z,40.64
2019-04-22T04:00:47.299Z,40.68
2019-04-22T04:01:43.575Z,40.67
2019-04-22T04:02:37.416Z,40.71
2019-04-22T04:03:28.040Z,40.65
2019-04-22T04:04:58.163Z,40.67
2019-04-22T04:05:32.967Z,40.71
2019-04-22T04:06:29.461Z,40.67
2019-04-22T04:07:47.091Z,40.67
2019-04-22T04:08:58.694Z,40.59
2019-04-22T04:10:39.443Z,40.59
2019-04-22T04:11:31.829Z,40.7
2019-04-22T04:12:27.860Z,40.63
2019-04-22T04:13:38.993Z,40.63
2019-04-22T04:15:33.844Z,40.6
2019-04-22T04:16:47.481Z,40.63
2019-04-22T04:17:28.675Z,40.62
2019-04-22T04:18:28.829Z,40.63
2019-04-22T04:19:33.880Z,40.63
2019-04-22T04:20:28.289Z,40.56
2019-04-22T04:25:16.551Z,40.62
2019-04-22T04:26:00.561Z,40.6
2019-04-22T04:28:09.804Z,40.67
2019-04-22T04:28:49.991Z,40.57
2019-04-22T04:30:04.946Z,40.63
2019-04-22T04:30:35.647Z,40.65
2019-04-22T04:32:04.968Z,40.62
2019-04-22T04:32:56.515Z,40.58
2019-04-22T04:33:37.823Z,40.57
2019-04-22T04:34:42.736Z,40.55
2019-04-22T04:35:52.419Z,40.57
2019-04-22T04:36:54.338Z,40.6
2019-04-22T04:38:36.126Z,40.59
2019-04-22T04:40:39.690Z,40.57
2019-04-22T04:42:12.828Z,40.58
2019-04-22T04:43:46.368Z,40.58
2019-04-22T04:44:57.629Z,40.6
2019-04-22T04:45:38.012Z,40.6
2019-04-22T04:47:40.698Z,40.56
2019-04-22T04:48:32.094Z,40.58
2019-04-22T04:50:06.716Z,40.59
2019-04-22T04:50:46.795Z,40.55
2019-04-22T04:51:46.082Z,40.59
2019-04-22T04:52:38.352Z,40.54
2019-04-22T04:54:47.430Z,40.64
2019-04-22T04:55:33.021Z,40.53
2019-04-22T04:56:39.770Z,40.55
2019-04-22T04:58:33.686Z,40.59
2019-04-22T05:00:21.375Z,40.56
2019-04-22T05:01:44.368Z,40.55
2019-04-22T05:02:37.093Z,40.63
2019-04-22T05:03:38.973Z,40.54
2019-04-22T05:05:39.326Z,40.54
2019-04-22T05:07:40.156Z,40.54
2019-04-22T05:08:51.123Z,40.53
2019-04-22T05:09:42.627Z,40.6
2019-04-22T05:11:44.716Z,40.58
2019-04-22T05:13:00.647Z,40.56
2019-04-22T05:13:32.054Z,40.57
2019-04-22T05:14:36.540Z,40.58
2019-04-22T05:15:29.212Z,40.55
2019-04-22T05:16:46.168Z,40.53
2019-04-22T05:18:37.073Z,40.53
2019-04-22T05:19:25.148Z,40.58
2019-04-22T05:20:40.356Z,40.54
2019-04-22T05:21:38.311Z,40.59
2019-04-22T05:22:20.193Z,40.61
2019-04-22T05:23:29.838Z,40.61
2019-04-22T05:25:22.058Z,40.56
2019-04-22T05:27:33.927Z,40.63
2019-04-22T05:28:23.521Z,40.62
2019-04-22T05:29:35.930Z,40.57
2019-04-22T05:30:38.985Z,40.66
2019-04-22T05:31:21.081Z,40.63
2019-04-22T05:32:24.281Z,40.66
2019-04-22T05:33:20.898Z,40.64
2019-04-22T05:34:27.845Z,40.7
2019-04-22T05:36:20.131Z,40.71
2019-04-22T05:37:26.879Z,40.67
2019-04-22T05:38:32.882Z,40.71
2019-04-22T05:39:20.888Z,40.72
2019-04-22T05:40:22.810Z,40.71
2019-04-22T05:41:15.755Z,40.78
2019-04-22T05:42:17.513Z,40.77
2019-04-22T05:43:20.936Z,40.79
2019-04-22T05:44:22.029Z,40.81
2019-04-22T05:45:31.009Z,40.79
2019-04-22T05:46:22.060Z,40.83
2019-04-22T05:47:07.837Z,40.84
2019-04-22T05:48:24.027Z,40.78
2019-04-22T05:49:17.602Z,40.84
2019-04-22T05:50:18.569Z,40.82
2019-04-22T05:51:25.450Z,40.8
2019-04-22T05:52:20.044Z,40.81
2019-04-22T05:53:19.335Z,40.87
2019-04-22T05:54:27.185Z,40.88
2019-04-22T05:55:29.901Z,40.86
2019-04-22T05:56:26.573Z,40.85
2019-04-22T05:57:17.790Z,40.85
2019-04-22T05:58:22.075Z,40.88
2019-04-22T05:59:24.207Z,40.86
2019-04-22T06:00:30.537Z,40.86
2019-04-22T06:02:02.676Z,40.86
2019-04-22T06:02:30.236Z,40.85
2019-04-22T06:03:20.408Z,40.88
2019-04-22T06:04:29.183Z,40.82
2019-04-22T06:05:24.321Z,40.93
2019-04-22T06:06:17.714Z,40.83
2019-04-22T06:07:12.947Z,40.85
2019-04-22T06:08:23.108Z,40.84
2019-04-22T06:09:24.140Z,40.86
2019-04-22T06:10:25.910Z,40.81
2019-04-22T06:11:25.457Z,40.81
2019-04-22T06:12:12.026Z,40.85
2019-04-22T06:13:09.742Z,40.84
2019-04-22T06:14:07.176Z,40.82
2019-04-22T06:15:18.137Z,40.78
2019-04-22T06:16:17.409Z,40.74
2019-04-22T06:17:23.775Z,40.76
2019-04-22T06:18:33.105Z,40.8
2019-04-22T06:19:18.322Z,40.8
2019-04-22T06:20:21.610Z,40.8
2019-04-22T06:21:36.889Z,40.81
2019-04-22T06:22:29.942Z,40.81
2019-04-22T06:24:27.108Z,40.86
2019-04-22T06:25:36.510Z,40.79
2019-04-22T06:26:50.716Z,40.77
2019-04-22T06:27:27.598Z,40.79
2019-04-22T06:29:24.898Z,40.83
2019-04-22T06:30:20.434Z,40.83
2019-04-22T06:32:52.994Z,40.78
2019-04-22T06:33:25.915Z,40.81
2019-04-22T06:34:28.556Z,40.76
2019-04-22T06:35:48.483Z,40.76
2019-04-22T06:36:23.213Z,40.78
2019-04-22T06:37:22.025Z,40.76
2019-04-22T06:39:27.661Z,40.8
2019-04-22T06:40:25.717Z,40.75
2019-04-22T06:41:32.867Z,40.73
2019-04-22T06:42:28.117Z,40.75
2019-04-22T06:43:21.565Z,40.76
2019-04-22T06:44:23.671Z,40.77
2019-04-22T06:45:23.277Z,40.82
2019-04-22T06:46:20.092Z,40.8
2019-04-22T06:47:43.684Z,40.78
2019-04-22T06:48:29.363Z,40.72
2019-04-22T06:49:08.934Z,40.78
2019-04-22T06:50:22.860Z,40.74
2019-04-22T06:51:19.371Z,40.79
2019-04-22T06:52:20.506Z,40.79
2019-04-22T06:53:23.548Z,40.8
2019-04-22T06:54:21.291Z,40.75
2019-04-22T06:55:26.980Z,40.82
2019-04-22T06:56:21.532Z,40.79
2019-04-22T06:57:25.065Z,40.82
2019-04-22T06:58:14.891Z,40.8
2019-04-22T06:59:24.585Z,40.79
2019-04-22T07:00:36.449Z,40.8
2019-04-22T07:02:23.659Z,40.79
2019-04-22T07:03:47.464Z,40.82
2019-04-22T07:04:16.068Z,40.81
2019-04-22T07:05:21.550Z,40.82
2019-04-22T07:06:25.923Z,40.8
2019-04-22T07:07:23.367Z,40.78
2019-04-22T07:10:34.756Z,40.85
2019-04-22T07:11:18.021Z,40.88
2019-04-22T07:12:28.634Z,40.75
2019-04-22T07:13:23.125Z,40.79
2019-04-22T07:14:16.131Z,40.82
2019-04-22T07:15:23.008Z,40.78
2019-04-22T07:16:24.907Z,40.77
2019-04-22T07:17:27.386Z,40.79
2019-04-22T07:18:29.554Z,40.81
2019-04-22T07:19:19.874Z,40.8
2019-04-22T07:20:09.982Z,40.81
2019-04-22T07:21:19.245Z,40.81
2019-04-22T07:23:26.911Z,40.81
2019-04-22T07:25:15.475Z,40.76
2019-04-22T07:26:28.875Z,40.84
2019-04-22T07:28:19.792Z,40.54
2019-04-22T07:29:18.774Z,39.78
2019-04-22T07:30:26.052Z,39
2019-04-22T07:31:26.443Z,38.82
2019-04-22T07:33:27.575Z,38.71
2019-04-22T07:34:26.320Z,38.84
2019-04-22T07:35:28.359Z,38.26
2019-04-22T07:36:35.216Z,38.51
2019-04-22T07:37:31.219Z,38.73
2019-04-22T07:40:43.146Z,37.85
2019-04-22T07:41:26.897Z,37.82
2019-04-22T07:42:24.299Z,38.08
2019-04-22T07:43:27.765Z,38.19
2019-04-22T07:45:24.933Z,38.49
2019-04-22T07:46:18.127Z,38.49
2019-04-22T07:47:37.278Z,38.6
2019-04-22T07:48:32.839Z,38.6
2019-04-22T07:49:25.675Z,38.65
2019-04-22T07:50:35.505Z,38.74
2019-04-22T07:51:26.373Z,38.82
2019-04-22T07:52:15.688Z,38.86
2019-04-22T07:53:15.526Z,38.82
2019-04-22T07:54:13.006Z,38.92
2019-04-22T07:55:11.500Z,38.96
2019-04-22T07:56:17.991Z,38.78
2019-04-22T07:57:27.286Z,38.71
2019-04-22T07:58:23.685Z,38.84
2019-04-22T07:59:09.030Z,38.86
2019-04-22T08:00:28.903Z,38.94
2019-04-22T08:01:35.169Z,39.03
2019-04-22T08:02:31.589Z,39.09
2019-04-22T08:03:26.540Z,39.08
2019-04-22T08:05:24.345Z,39.2
2019-04-22T08:06:35.985Z,39.28
2019-04-22T08:07:23.627Z,39.25
2019-04-22T08:08:28.608Z,39.31
2019-04-22T08:09:44.253Z,39.36
2019-04-22T08:10:36.641Z,39.38
2019-04-22T08:11:36.918Z,39.43
2019-04-22T08:12:26.112Z,39.48
2019-04-22T08:13:24.617Z,39.44
2019-04-22T08:14:14.044Z,39.48
2019-04-22T08:15:32.205Z,39.52
2019-04-22T08:16:22.720Z,39.54
2019-04-22T08:17:38.307Z,39.56
2019-04-22T08:18:21.688Z,39.58
2019-04-22T08:20:28.366Z,39.6
2019-04-22T08:21:21.802Z,39.64
2019-04-22T08:22:20.604Z,39.63
2019-04-22T08:23:41.495Z,39.66
2019-04-22T08:24:22.074Z,39.7
2019-04-22T08:25:16.264Z,39.71
2019-04-22T08:26:19.133Z,39.72
2019-04-22T08:27:22.208Z,39.75
2019-04-22T08:28:25.191Z,39.75
2019-04-22T08:29:25.004Z,39.77
2019-04-22T08:30:33.415Z,39.76
2019-04-22T08:31:28.090Z,39.8
2019-04-22T08:32:27.813Z,39.78
2019-04-22T08:34:41.719Z,39.8
2019-04-22T08:35:28.869Z,40.19
2019-04-22T08:36:40.353Z,40.15
2019-04-22T08:38:23.734Z,40.39
2019-04-22T08:39:18.527Z,40.39
2019-04-22T08:40:35.974Z,40.51
2019-04-22T08:41:37.036Z,40.58
2019-04-22T08:42:25.905Z,40.59
2019-04-22T08:43:26.562Z,40.64
2019-04-22T08:44:27.447Z,40.62
2019-04-22T08:45:38.268Z,40.61
2019-04-22T08:46:26.921Z,40.64
2019-04-22T08:47:30.571Z,40.73
2019-04-22T08:48:22.559Z,40.73
2019-04-22T08:49:15.862Z,40.78
2019-04-22T08:50:38.660Z,40.78
2019-04-22T08:52:20.554Z,40.83
2019-04-22T08:53:23.287Z,40.89
2019-04-22T08:54:23.678Z,40.87
2019-04-22T08:55:24.228Z,40.99
2019-04-22T08:56:36.738Z,40.91
2019-04-22T08:58:39.455Z,40.97
2019-04-22T08:59:21.584Z,41.05
2019-04-22T09:00:43.444Z,41.05
2019-04-22T09:01:22.337Z,41.11
2019-04-22T09:02:25.601Z,41.14
2019-04-22T09:03:23.705Z,41.1
2019-04-22T09:04:11.274Z,41.11
2019-04-22T09:05:36.644Z,41.17
2019-04-22T09:06:29.463Z,41.15
2019-04-22T09:08:26.126Z,41.09
2019-04-22T09:09:26.311Z,41.1
2019-04-22T09:10:23.783Z,41.1
2019-04-22T09:11:26.383Z,41.15
2019-04-22T09:12:34.247Z,41.13
2019-04-22T09:13:19.998Z,41.23
2019-04-22T09:14:24.017Z,41.21
2019-04-22T09:15:09.810Z,41.21
2019-04-22T09:16:26.143Z,41.11
2019-04-22T09:17:27.646Z,41.34
2019-04-22T09:18:34.289Z,41.37
2019-04-22T09:19:28.250Z,41.48
2019-04-22T09:20:20.270Z,41.45
2019-04-22T09:21:32.480Z,41.39
2019-04-22T09:22:21.025Z,41.48
2019-04-22T09:23:29.998Z,41.46
2019-04-22T09:24:29.022Z,41.4
2019-04-22T09:25:23.882Z,41.52
2019-04-22T09:26:22.556Z,41.49
2019-04-22T09:27:32.833Z,41.42
2019-04-22T09:28:22.589Z,41.42
2019-04-22T09:29:33.645Z,41.44
2019-04-22T09:30:27.274Z,41.51
2019-04-22T09:31:23.289Z,41.46
2019-04-22T09:32:26.130Z,41.45
2019-04-22T09:33:36.666Z,41.41
2019-04-22T09:34:22.370Z,41.41
2019-04-22T09:35:15.429Z,41.39
2019-04-22T09:36:28.702Z,41.38
2019-04-22T09:39:20.897Z,41.37
2019-04-22T09:40:34.066Z,41.38
2019-04-22T09:41:18.346Z,41.39
2019-04-22T09:44:21.540Z,41.4
2019-04-22T09:45:21.017Z,41.4
2019-04-22T09:46:20.982Z,41.42
2019-04-22T09:47:24.750Z,41.37
2019-04-22T09:48:23.040Z,41.38
2019-04-22T09:51:18.409Z,41.43
2019-04-22T09:52:19.939Z,41.41
2019-04-22T09:53:28.409Z,41.42
2019-04-22T09:54:21.480Z,41.41
2019-04-22T09:56:17.218Z,41.47
2019-04-22T09:57:14.978Z,41.41
2019-04-22T09:58:08.988Z,41.37
2019-04-22T09:59:12.847Z,41.38
2019-04-22T10:00:26.724Z,41.41
2019-04-22T10:02:40.442Z,41.41
2019-04-22T10:03:25.659Z,41.42
2019-04-22T10:04:17.828Z,41.43
2019-04-22T10:05:27.289Z,41.39
2019-04-22T10:07:20.767Z,41.37
2019-04-22T10:08:31.447Z,41.35
2019-04-22T10:09:49.342Z,41.42
2019-04-22T10:10:26.636Z,41.42
2019-04-22T10:11:37.478Z,41.41
2019-04-22T10:12:24.582Z,41.44
2019-04-22T10:13:25.306Z,41.41
2019-04-22T10:14:24.652Z,41.46
2019-04-22T10:15:19.382Z,41.4
2019-04-22T10:16:30.715Z,41.44
2019-04-22T10:17:12.173Z,41.43
2019-04-22T10:18:25.675Z,41.45
2019-04-22T10:19:22.741Z,41.44
2019-04-22T10:20:30.697Z,41.39
2019-04-22T10:46:15.898Z,"  40.29"
2019-04-22T10:47:15.952Z,"  40.27"
2019-04-22T10:48:16.448Z,"  40.26"
2019-04-22T10:49:16.131Z,"  40.28"
2019-04-22T10:50:16.497Z,"  40.30"
2019-04-22T10:51:16.937Z,"  40.35"
2019-04-22T10:52:02.703Z,"  40.31"
2019-04-22T10:53:01.602Z,"  40.21"
2019-04-22T10:54:01.700Z,"  40.19"
2019-04-22T10:55:01.551Z,"  40.26"
2019-04-22T10:56:01.281Z,"  40.29"
2019-04-22T10:57:01.263Z,"  40.37"
2019-04-22T10:58:23.043Z,"  40.31"
2019-04-22T10:59:22.867Z,"  40.32"
2019-04-22T11:00:23.719Z,"  40.32"
2019-04-22T11:01:23.278Z,"  40.33"
2019-04-22T11:02:23.433Z,"  40.31"
2019-04-22T11:03:24.264Z,"  40.36"
2019-04-22T11:04:22.771Z,"  40.36"
2019-04-22T11:05:23.952Z,"  40.35"
2019-04-22T11:06:23.332Z,"  40.32"
2019-04-22T11:07:31.074Z,"  40.48"
2019-04-22T11:08:31.945Z,"  40.54"
2019-04-22T11:09:23.927Z,"  40.60"
2019-04-22T11:10:35.299Z,"  40.57"
2019-04-22T11:11:34.767Z,"  40.54"
2019-04-22T11:12:25.156Z,"  40.49"
2019-04-22T11:13:24.298Z,"  40.47"
2019-04-22T11:14:23.259Z,"  40.52"
2019-04-22T11:15:22.850Z,"  40.49"
2019-04-22T11:16:23.420Z,"  40.48"
2019-04-22T11:17:23.964Z,"  40.50"
2019-04-22T11:18:23.239Z,"  40.50"
2019-04-22T11:19:23.566Z,"  40.44"
2019-04-22T11:20:23.780Z,"  40.46"
2019-04-22T11:21:23.338Z,"  40.44"
2019-04-22T11:22:27.702Z,"  40.47"
2019-04-22T11:23:22.924Z,"  40.49"
2019-04-22T11:24:23.091Z,"  40.51"
2019-04-22T11:25:23.586Z,"  40.52"
2019-04-22T11:26:23.767Z,"  40.51"
2019-04-22T11:27:23.265Z,"  40.51"
2019-04-22T11:28:23.370Z,"  40.57"
2019-04-22T11:29:23.745Z,"  40.56"
2019-04-22T11:30:24.292Z,"  40.57"
2019-04-22T11:31:24.088Z,"  40.44"
2019-04-22T11:32:22.729Z,"  40.38"
2019-04-22T11:33:48.420Z,"  40.38"
2019-04-22T11:34:49.053Z,"  40.39"
2019-04-22T11:35:48.188Z,"  40.50"
2019-04-22T11:36:48.109Z,"  40.54"
2019-04-22T11:37:48.630Z,"  40.47"
2019-04-22T11:38:52.321Z,"  40.44"
2019-04-22T11:40:00.283Z,"  40.40"
2019-04-22T11:40:52.491Z,"  40.48"
2019-04-22T11:41:48.194Z,"  40.53"
2019-04-22T11:42:48.334Z,"  40.59"
2019-04-22T11:43:49.450Z,"  40.59"
2019-04-22T11:44:48.255Z,"  40.53"
2019-04-22T11:45:49.231Z,"  40.54"
2019-04-22T11:46:49.552Z,"  40.50"
2019-04-22T11:47:48.271Z,"  40.48"
2019-04-22T11:48:48.111Z,"  40.47"
2019-04-22T11:49:48.120Z,"  40.53"
2019-04-22T11:50:48.215Z,"  40.51"
2019-04-22T11:51:48.081Z,"  40.49"
2019-04-22T11:52:48.847Z,"  40.44"
2019-04-22T11:53:49.141Z,"  40.47"
2019-04-22T11:54:48.582Z,"  40.45"
2019-04-22T11:55:49.014Z,"  40.48"
2019-04-22T11:56:49.314Z,"  40.45"
2019-04-22T11:57:48.164Z,"  40.48"
2019-04-22T11:58:48.927Z,"  40.46"
2019-04-22T11:59:49.033Z,"  40.52"
2019-04-22T12:00:49.380Z,"  40.46"
2019-04-22T12:01:48.767Z,"  40.45"
2019-04-22T12:02:49.336Z,"  40.53"
2019-04-22T12:03:49.616Z,"  40.46"
2019-04-22T12:04:49.652Z,"  40.49"
2019-04-22T12:05:48.218Z,"  40.53"
2019-04-22T12:06:49.632Z,"  40.55"
2019-04-22T12:07:48.984Z,"  40.52"
2019-04-22T12:08:48.065Z,"  40.53"
2019-04-22T12:09:48.063Z,"  40.55"
2019-04-22T12:10:53.159Z,"  40.59"
2019-04-22T12:11:49.408Z,"  40.46"
2019-04-22T12:12:49.588Z,"  40.36"
2019-04-22T12:13:48.341Z,"  40.34"
2019-04-22T12:14:48.087Z,"  40.32"
2019-04-22T12:15:49.102Z,"  40.24"
2019-04-22T12:16:49.634Z,"  40.21"
2019-04-22T12:17:48.923Z,"  40.17"
2019-04-22T12:18:49.287Z,"  40.18"
2019-04-22T12:19:48.276Z,"  40.18"
2019-04-22T12:20:57.145Z,"  40.14"
2019-04-22T12:21:57.246Z,"  40.18"
2019-04-22T12:22:57.222Z,"  40.18"
2019-04-22T12:23:58.790Z,"  40.22"
2019-04-22T12:24:58.594Z,"  40.28"
2019-04-22T12:26:03.557Z,"  40.45"
2019-04-22T12:26:58.042Z,"  40.56"
2019-04-22T12:27:57.077Z,"  40.46"
2019-04-22T12:28:57.392Z,"  40.51"
2019-04-22T12:29:57.002Z,"  40.38"
2019-04-22T12:30:57.365Z,"  40.57"
2019-04-22T12:31:57.751Z,"  40.54"
2019-04-22T12:32:58.119Z,"  40.59"
2019-04-22T12:33:57.372Z,"  40.56"
2019-04-22T12:34:57.477Z,"  40.53"
2019-04-22T12:35:57.021Z,"  40.53"
2019-04-22T12:36:58.415Z,"  40.47"
2019-04-22T12:37:59.756Z,"  40.40"
2019-04-22T12:38:57.841Z,"  40.26"
2019-04-22T12:39:58.286Z,"  40.24"
2019-04-22T12:41:00.444Z,"  40.28"
2019-04-22T12:41:58.337Z,"  40.39"
2019-04-22T12:42:57.665Z,"  40.32"
2019-04-22T12:43:57.184Z,"  40.29"
2019-04-22T12:44:58.380Z,"  40.34"
2019-04-22T12:45:58.264Z,"  40.23"
2019-04-22T12:46:56.924Z,"  40.29"
2019-04-22T12:47:57.913Z,"  40.35"
2019-04-22T12:48:58.243Z,"  40.29"
2019-04-22T12:50:08.905Z,"  40.33"
2019-04-22T12:50:58.484Z,"  40.37"
2019-04-22T12:51:57.161Z,"  40.29"
2019-04-22T12:53:01.315Z,"  40.25"
2019-04-22T12:53:57.255Z,"  40.40"
2019-04-22T12:54:57.373Z,"  40.55"
2019-04-22T12:55:57.884Z,"  40.41"
2019-04-22T12:56:57.758Z,"  40.47"
2019-04-22T12:58:00.718Z,"  40.53"
2019-04-22T12:58:57.096Z,"  40.56"
2019-04-22T12:59:57.520Z,"  40.30"
2019-04-22T13:00:57.246Z,"  40.20"
2019-04-22T13:01:58.550Z,"  40.36"
2019-04-22T13:02:57.154Z,"  40.27"
2019-04-22T13:04:03.244Z,"  40.34"
2019-04-22T13:04:58.188Z,"  40.39"
2019-04-22T13:05:57.358Z,"  40.39"
2019-04-22T13:06:57.703Z,"  40.32"
2019-04-22T13:07:57.834Z,"  40.33"
2019-04-22T13:08:57.015Z,"  40.38"
2019-04-22T13:09:57.163Z,"  40.30"
2019-04-22T13:11:00.906Z,"  40.43"
2019-04-22T13:11:57.198Z,"  40.43"
2019-04-22T13:12:58.559Z,"  40.28"
2019-04-22T13:13:57.106Z,"  40.31"
2019-04-22T13:14:57.261Z,"  40.35"
2019-04-22T13:15:57.194Z,"  40.29"
2019-04-22T13:16:57.778Z,"  40.37"
2019-04-22T13:18:05.727Z,"  40.32"
2019-04-22T13:19:02.015Z,"  40.34"
2019-04-22T13:19:30.208Z,"  40.82"
2019-04-22T13:20:30.456Z,"  40.66"
2019-04-22T13:21:30.925Z,"  40.92"
2019-04-22T13:22:30.591Z,"  40.98"
2019-04-22T13:23:29.891Z,"  41.12"
2019-04-22T13:24:30.181Z,"  41.08"
2019-04-22T13:25:32.177Z,"  41.24"
2019-04-22T13:26:29.933Z,"  41.67"
2019-04-22T13:27:30.894Z,"  41.15"
2019-04-22T13:28:31.359Z,"  41.29"
2019-04-22T13:29:31.122Z,"  41.30"
2019-04-22T13:30:30.505Z,"  41.40"
2019-04-22T13:31:30.858Z,"  41.46"
2019-04-22T13:32:31.222Z,"  41.43"
2019-04-22T13:33:30.597Z,"  41.42"
2019-04-22T13:34:34.734Z,"  41.35"
2019-04-22T13:35:29.833Z,"  41.46"
2019-04-22T13:36:31.492Z,"  41.46"
2019-04-22T13:37:30.805Z,"  41.40"
2019-04-22T13:38:31.155Z,"  41.47"
2019-04-22T13:39:31.281Z,"  41.42"
2019-04-22T13:40:30.778Z,"  41.47"
2019-04-22T13:41:35.398Z,"  41.49"
2019-04-22T13:42:31.216Z,"  41.49"
2019-04-22T13:43:31.116Z,"  41.53"
2019-04-22T13:44:31.332Z,"  41.56"
2019-04-22T13:45:29.844Z,"  41.52"
2019-04-22T13:46:31.714Z,"  41.57"
2019-04-22T13:47:46.493Z,"  41.56"
2019-04-22T13:48:46.925Z,"  41.57"
2019-04-22T13:52:02.314Z,"  41.59"
2019-04-22T13:53:03.696Z,"  41.57"
2019-04-22T13:54:35.167Z,"  41.54"
2019-04-22T13:55:09.697Z,"  41.55"
2019-04-22T13:55:48.477Z,"  41.59"
2019-04-22T13:56:48.002Z,"  41.56"
2019-04-22T13:57:47.149Z,"  41.61"
2019-04-22T13:58:46.121Z,"  41.60"
2019-04-22T13:59:38.188Z,"  41.60"
2019-04-22T14:00:30.859Z,"  41.50"
2019-04-22T14:01:30.368Z,"  41.60"
2019-04-22T14:02:30.624Z,"  41.62"
2019-04-22T14:03:30.832Z,"  41.54"
2019-04-22T14:04:30.454Z,"  41.59"
2019-04-22T14:05:31.002Z,"  41.58"
2019-04-22T14:06:31.106Z,"  41.57"
2019-04-22T14:07:30.740Z,"  41.62"
2019-04-22T14:08:31.218Z,"  41.50"
2019-04-22T14:09:30.565Z,"  41.43"
2019-04-22T14:10:30.252Z,"  41.47"
2019-04-22T14:11:37.656Z,"  41.46"
2019-04-22T14:12:30.815Z,"  41.46"
2019-04-22T14:13:30.049Z,"  41.47"
2019-04-22T14:14:30.202Z,"  41.47"
2019-04-22T14:15:29.889Z,"  41.47"
2019-04-22T14:16:31.020Z,"  41.52"
2019-04-22T14:17:31.381Z,"  41.54"
2019-04-22T14:18:30.740Z,"  41.52"
2019-04-22T14:19:29.947Z,"  41.57"
2019-04-22T14:20:32.346Z,"  41.48"
2019-04-22T14:21:30.567Z,"  41.52"
2019-04-22T14:22:30.540Z,"  41.52"
2019-04-22T14:23:30.890Z,"  41.49"